Time;durP1;ratioP1;P1;durP2;ratioP2;P2;SDS_P1;SDS_P2;PMS_P1;PMS_P2;Temp;Humidity;BMP_temperature;BMP_pressure;BME280_temperature;BME280_humidity;BME280_pressure;Samples;Min_cycle;Max_cycle;Signal;HPM_P1;HPM_P2
2023/01/11 00:00:28;;;;;;;2.08;1.50;;;17.40;47.80;;;;;;5033554;28;20208;-79
2023/01/11 00:02:56;;;;;;;1.65;1.52;;;17.40;48.00;;;;;;5017138;28;20212;-79
2023/01/11 00:05:23;;;;;;;1.67;1.35;;;17.40;48.10;;;;;;5035831;28;20635;-79
2023/01/11 00:07:50;;;;;;;2.25;1.70;;;17.40;48.40;;;;;;5034369;28;20207;-79
2023/01/11 00:10:17;;;;;;;1.50;1.40;;;17.40;48.30;;;;;;5035149;28;20188;-79
2023/01/11 00:12:44;;;;;;;2.20;1.58;;;17.30;48.90;;;;;;5033475;28;20204;-79
2023/01/11 00:15:13;;;;;;;1.83;1.50;;;17.30;48.40;;;;;;5033974;28;20594;-79
2023/01/11 00:17:41;;;;;;;1.65;1.50;;;17.30;49.10;;;;;;5033034;28;20203;-78
2023/01/11 00:20:09;;;;;;;1.50;1.40;;;17.30;48.90;;;;;;5033378;28;20410;-78
2023/01/11 00:22:36;;;;;;;1.42;1.30;;;17.30;48.70;;;;;;5033515;28;20195;-78
2023/01/11 00:25:04;;;;;;;1.60;1.50;;;17.30;48.60;;;;;;5033631;28;20220;-78
2023/01/11 00:27:31;;;;;;;1.80;1.60;;;17.30;48.70;;;;;;5034675;28;20203;-78
2023/01/11 00:29:58;;;;;;;1.95;1.55;;;17.30;49.30;;;;;;5033764;28;20728;-79
2023/01/11 00:32:27;;;;;;;2.45;1.42;;;17.30;48.80;;;;;;5035224;28;20203;-79
2023/01/11 00:34:55;;;;;;;2.17;1.58;;;17.30;48.90;;;;;;5034656;28;20212;-79
2023/01/11 00:37:22;;;;;;;2.25;1.40;;;17.20;49.10;;;;;;5032866;28;20257;-79
2023/01/11 00:39:49;;;;;;;1.42;1.30;;;17.20;48.90;;;;;;5017032;28;20216;-79
2023/01/11 00:47:59;;;;;;;1.70;1.48;;;17.20;49.30;;;;;;5033399;28;20188;-78
2023/01/11 00:50:27;;;;;;;2.50;1.60;;;17.20;49.10;;;;;;5033131;28;20218;-78
2023/01/11 00:52:54;;;;;;;1.67;1.48;;;17.20;48.90;;;;;;5035778;28;20203;-78
2023/01/11 00:55:21;;;;;;;1.83;1.23;;;17.20;49.50;;;;;;5039393;28;20302;-78
2023/01/11 00:57:48;;;;;;;1.63;1.40;;;17.20;48.90;;;;;;5039089;28;20188;-78
2023/01/11 01:00:15;;;;;;;1.75;1.40;;;17.20;49.30;;;;;;5037244;28;20227;-78
2023/01/11 01:02:43;;;;;;;1.60;1.40;;;17.20;49.90;;;;;;5037183;28;20200;-78
2023/01/11 01:05:11;;;;;;;1.52;1.30;;;17.20;49.90;;;;;;5036867;28;20717;-78
2023/01/11 01:07:39;;;;;;;1.40;1.30;;;17.10;50.00;;;;;;5037215;28;20227;-79
2023/01/11 01:10:07;;;;;;;1.75;1.40;;;17.20;49.70;;;;;;5037662;28;20192;-79
2023/01/11 01:15:19;;;;;;;1.83;1.45;;;17.20;49.20;;;;;;5036787;28;20248;-79
2023/01/11 01:17:46;;;;;;;2.05;1.45;;;17.10;49.40;;;;;;5036733;28;20207;-79
2023/01/11 01:20:14;;;;;;;1.30;1.20;;;17.10;49.40;;;;;;5036319;28;20219;-79
2023/01/11 01:22:42;;;;;;;1.20;1.10;;;17.20;49.40;;;;;;5036052;28;20227;-79
2023/01/11 01:25:09;;;;;;;1.52;1.40;;;17.10;49.40;;;;;;5036586;28;20691;-78
2023/01/11 01:27:36;;;;;;;1.45;1.30;;;17.10;49.70;;;;;;5037072;28;20243;-79
2023/01/11 01:30:04;;;;;;;1.10;1.10;;;17.10;49.40;;;;;;5036472;28;20188;-79
2023/01/11 01:32:32;;;;;;;1.20;1.13;;;17.10;49.30;;;;;;5037050;28;20196;-79
2023/01/11 01:34:59;;;;;;;1.45;1.35;;;17.10;49.50;;;;;;5037349;28;20212;-79
2023/01/11 01:37:27;;;;;;;2.38;1.45;;;17.10;49.40;;;;;;5036088;28;20200;-79
2023/01/11 01:39:54;;;;;;;1.30;1.20;;;17.10;49.30;;;;;;5019332;28;20220;-79
2023/01/11 01:42:22;;;;;;;1.23;1.13;;;17.10;49.50;;;;;;5035795;28;20204;-78
2023/01/11 01:44:54;;;;;;;1.38;1.23;;;17.10;49.30;;;;;;5035466;28;20251;-78
2023/01/11 01:47:23;;;;;;;1.40;1.30;;;17.10;49.40;;;;;;5036484;28;20192;-78
2023/01/11 01:49:50;;;;;;;2.00;1.30;;;17.10;49.30;;;;;;5019141;28;20184;-78
2023/01/11 01:52:18;;;;;;;1.40;1.23;;;17.10;49.30;;;;;;5035496;28;20199;-78
2023/01/11 01:54:47;;;;;;;1.38;1.25;;;17.10;49.40;;;;;;5035440;28;20591;-78
2023/01/11 01:57:16;;;;;;;1.83;1.30;;;17.10;49.50;;;;;;5035184;28;20677;-78
2023/01/11 01:59:43;;;;;;;1.55;1.30;;;17.10;49.60;;;;;;5035322;28;20265;-78
2023/01/11 02:02:10;;;;;;;1.35;1.25;;;17.10;49.40;;;;;;5035452;28;20200;-78
2023/01/11 02:04:38;;;;;;;1.42;1.33;;;17.10;49.30;;;;;;5034933;28;20211;-78
2023/01/11 02:07:09;;;;;;;1.30;1.10;;;17.10;49.40;;;;;;5035040;28;20678;-78
2023/01/11 02:09:37;;;;;;;1.42;1.33;;;17.10;49.40;;;;;;5035917;28;20196;-78
2023/01/11 02:12:06;;;;;;;1.35;1.20;;;17.10;49.40;;;;;;5035585;28;20283;-78
2023/01/11 02:14:34;;;;;;;1.33;1.13;;;17.10;49.40;;;;;;5035429;28;20265;-78
2023/01/11 02:17:01;;;;;;;1.40;1.30;;;17.00;49.30;;;;;;5035455;28;20567;-78
2023/01/11 02:19:39;;;;;;;1.40;1.23;;;17.00;49.40;;;;;;5020110;28;20227;-78
2023/01/11 02:22:15;;;;;;;1.23;1.13;;;17.00;49.50;;;;;;5036625;28;20200;-78
2023/01/11 02:25:05;;;;;;;1.25;1.10;;;17.00;49.50;;;;;;5035842;28;20226;-78
2023/01/11 02:27:57;;;;;;;1.30;1.15;;;17.00;49.60;;;;;;5036241;28;20199;-78
2023/01/11 02:30:28;;;;;;;2.00;1.33;;;17.00;49.90;;;;;;5035711;28;20203;-78
2023/01/11 02:32:58;;;;;;;1.00;1.00;;;17.00;49.60;;;;;;5019098;28;20203;-78
2023/01/11 02:35:29;;;;;;;1.30;1.20;;;17.00;49.70;;;;;;5036343;28;20299;-78
2023/01/11 02:38:00;;;;;;;1.95;1.30;;;17.00;50.00;;;;;;5035284;28;20203;-78
2023/01/11 02:40:29;;;;;;;1.30;1.20;;;17.00;50.00;;;;;;5018678;28;20220;-78
2023/01/11 02:45:50;;;;;;;1.20;1.10;;;16.90;49.90;;;;;;5035082;28;20220;-78
2023/01/11 02:48:19;;;;;;;1.42;1.33;;;16.90;50.30;;;;;;5034569;28;20196;-78
2023/01/11 02:50:49;;;;;;;1.30;1.05;;;16.90;50.60;;;;;;5034201;28;20192;-78
2023/01/11 02:53:18;;;;;;;1.52;1.23;;;16.90;50.20;;;;;;5034365;28;20232;-78
2023/01/11 02:55:47;;;;;;;1.40;1.23;;;16.90;50.10;;;;;;5018238;28;20227;-78
2023/01/11 02:58:16;;;;;;;1.27;1.17;;;16.90;50.10;;;;;;5034150;28;20196;-78
2023/01/11 03:00:43;;;;;;;0.95;0.95;;;16.90;50.00;;;;;;5034219;28;20216;-78
2023/01/11 03:03:13;;;;;;;1.33;1.23;;;16.90;50.10;;;;;;5034112;28;20200;-78
2023/01/11 03:05:44;;;;;;;1.15;1.05;;;16.90;50.20;;;;;;5035772;28;20212;-78
2023/01/11 03:08:22;;;;;;;0.90;0.90;;;16.90;50.20;;;;;;5034347;28;20242;-78
2023/01/11 03:10:55;;;;;;;1.83;1.27;;;16.80;50.60;;;;;;5034262;28;20195;-78
2023/01/11 03:13:25;;;;;;;1.50;1.20;;;16.90;50.70;;;;;;5034080;28;20287;-79
2023/01/11 03:16:00;;;;;;;1.10;1.00;;;16.80;50.10;;;;;;5033724;28;20243;-79
2023/01/11 03:18:33;;;;;;;1.20;1.10;;;16.80;50.20;;;;;;5034020;28;20596;-79
2023/01/11 03:21:08;;;;;;;1.70;1.15;;;16.90;50.20;;;;;;5033635;28;20686;-79
2023/01/11 03:23:37;;;;;;;0.90;0.90;;;16.90;50.20;;;;;;5034461;28;20276;-79
2023/01/11 03:26:07;;;;;;;1.20;1.10;;;16.80;50.30;;;;;;5033603;28;20219;-79
2023/01/11 03:28:38;;;;;;;0.90;0.90;;;16.90;50.30;;;;;;5033522;28;20184;-78
2023/01/11 03:31:08;;;;;;;1.20;1.10;;;16.90;50.20;;;;;;5033682;28;20188;-79
2023/01/11 03:33:37;;;;;;;0.88;0.88;;;16.80;50.20;;;;;;5033406;28;20295;-79
2023/01/11 03:36:08;;;;;;;0.98;0.90;;;16.90;50.40;;;;;;5033688;28;20243;-79
2023/01/11 03:38:37;;;;;;;1.00;0.90;;;16.80;50.20;;;;;;5033328;28;20185;-78
2023/01/11 03:41:05;;;;;;;1.05;1.00;;;16.80;50.20;;;;;;5033924;28;20224;-78
2023/01/11 03:43:33;;;;;;;1.38;1.10;;;16.80;50.20;;;;;;5034380;28;20195;-78
2023/01/11 03:46:04;;;;;;;1.05;0.95;;;16.90;50.20;;;;;;5016978;28;20251;-78
2023/01/11 03:48:32;;;;;;;1.08;1.00;;;16.80;50.10;;;;;;5033966;28;20196;-78
2023/01/11 03:50:59;;;;;;;0.80;0.80;;;16.90;50.30;;;;;;5032952;28;20196;-79
2023/01/11 03:53:27;;;;;;;1.35;0.88;;;16.90;50.30;;;;;;5033473;28;20207;-78
2023/01/11 03:55:55;;;;;;;1.13;1.02;;;16.90;50.20;;;;;;5033070;28;20242;-78
2023/01/11 03:58:22;;;;;;;1.15;0.90;;;16.90;50.40;;;;;;5033413;28;20271;-78
2023/01/11 04:00:49;;;;;;;1.10;1.00;;;16.80;50.30;;;;;;5033026;28;20693;-78
2023/01/11 04:03:17;;;;;;;1.02;1.00;;;16.80;50.10;;;;;;5033019;28;20203;-78
2023/01/11 04:05:45;;;;;;;1.20;1.10;;;16.80;50.10;;;;;;5032710;28;20227;-79
2023/01/11 04:08:12;;;;;;;1.75;1.00;;;16.80;50.10;;;;;;5032900;28;20210;-78
2023/01/11 04:10:39;;;;;;;1.13;1.02;;;16.80;50.10;;;;;;5032817;28;20188;-79
2023/01/11 04:13:06;;;;;;;0.82;0.82;;;16.80;50.20;;;;;;5032688;28;20200;-78
2023/01/11 04:15:34;;;;;;;2.08;0.80;;;16.80;50.40;;;;;;5032803;28;20211;-79
2023/01/11 04:18:03;;;;;;;1.55;0.90;;;16.80;50.60;;;;;;5016422;28;20207;-78
2023/01/11 04:20:33;;;;;;;0.85;0.85;;;16.80;50.70;;;;;;5032442;28;20223;-78
2023/01/11 04:23:00;;;;;;;1.15;1.05;;;16.80;50.80;;;;;;5034084;28;20586;-78
2023/01/11 04:25:27;;;;;;;0.80;0.80;;;16.80;50.80;;;;;;5032509;28;20215;-78
2023/01/11 04:27:54;;;;;;;1.17;1.02;;;16.80;50.80;;;;;;5015965;28;20196;-78
2023/01/11 04:30:21;;;;;;;1.02;1.00;;;16.80;50.80;;;;;;5033051;28;20195;-78
2023/01/11 04:32:48;;;;;;;0.88;0.82;;;16.80;50.70;;;;;;5016039;28;20573;-78
2023/01/11 04:35:36;;;;;;;1.42;1.13;;;16.80;50.70;;;;;;5033849;28;20218;-78
2023/01/11 04:38:03;;;;;;;0.80;0.80;;;16.80;50.80;;;;;;5033865;28;20203;-78
2023/01/11 04:40:30;;;;;;;0.90;0.90;;;16.80;50.80;;;;;;5032145;28;20678;-78
2023/01/11 04:43:00;;;;;;;1.08;0.98;;;16.90;51.00;;;;;;5032161;28;20196;-78
2023/01/11 04:45:28;;;;;;;0.98;0.95;;;16.90;51.00;;;;;;5032180;28;20274;-78
2023/01/11 04:47:56;;;;;;;0.98;0.90;;;16.90;50.90;;;;;;5033416;28;20214;-78
2023/01/11 04:50:23;;;;;;;1.00;1.00;;;16.90;50.90;;;;;;5032239;28;20204;-78
2023/01/11 04:52:51;;;;;;;0.80;0.80;;;16.90;50.80;;;;;;5033335;28;20204;-78
2023/01/11 04:55:19;;;;;;;1.00;1.00;;;16.90;50.80;;;;;;5032959;28;20249;-78
2023/01/11 04:57:46;;;;;;;0.85;0.85;;;16.90;50.80;;;;;;5018514;28;20672;-79
2023/01/11 05:00:14;;;;;;;0.85;0.85;;;17.00;50.70;;;;;;5033863;28;20675;-79
2023/01/11 05:02:41;;;;;;;0.80;0.80;;;16.90;50.60;;;;;;5035344;28;20323;-79
2023/01/11 05:05:10;;;;;;;1.45;1.02;;;16.90;50.60;;;;;;5035391;28;20224;-78
2023/01/11 05:07:39;;;;;;;1.20;0.90;;;17.00;50.60;;;;;;5034257;28;20199;-79
2023/01/11 05:10:09;;;;;;;0.90;0.90;;;17.00;50.60;;;;;;5033335;28;20543;-79
2023/01/11 05:12:36;;;;;;;1.25;1.10;;;17.00;50.50;;;;;;5033133;28;20682;-79
2023/01/11 05:15:06;;;;;;;0.98;0.98;;;17.00;50.20;;;;;;5033124;28;20718;-79
2023/01/11 05:17:33;;;;;;;0.80;0.80;;;17.00;50.10;;;;;;5033391;28;20259;-79
2023/01/11 05:20:00;;;;;;;1.58;0.90;;;17.00;50.00;;;;;;5016950;28;20208;-79
2023/01/11 05:22:28;;;;;;;0.80;0.80;;;17.10;50.00;;;;;;5034310;28;20207;-79
2023/01/11 05:24:55;;;;;;;0.90;0.90;;;17.10;49.80;;;;;;5033059;28;20212;-79
2023/01/11 05:27:23;;;;;;;1.33;1.00;;;17.10;49.90;;;;;;5032779;28;20283;-79
2023/01/11 05:29:50;;;;;;;1.20;1.10;;;17.10;49.70;;;;;;5032287;28;20208;-79
2023/01/11 05:32:17;;;;;;;1.10;1.00;;;17.10;49.80;;;;;;5032425;28;20196;-79
2023/01/11 05:34:44;;;;;;;0.73;0.73;;;17.10;49.80;;;;;;5031871;28;20635;-79
2023/01/11 05:37:11;;;;;;;0.75;0.75;;;17.10;49.80;;;;;;5031927;28;20204;-79
2023/01/11 05:39:38;;;;;;;1.10;1.00;;;17.10;49.70;;;;;;5031962;28;20207;-79
2023/01/11 05:42:06;;;;;;;0.95;0.70;;;17.10;49.70;;;;;;5035115;28;20290;-79
2023/01/11 05:47:19;;;;;;;1.00;0.90;;;17.20;49.70;;;;;;5035601;28;20250;-79
2023/01/11 05:49:46;;;;;;;1.00;0.90;;;17.10;49.70;;;;;;5019029;28;20196;-79
2023/01/11 05:52:14;;;;;;;0.75;0.75;;;17.10;49.70;;;;;;5035547;28;20268;-79
2023/01/11 05:54:42;;;;;;;1.33;0.80;;;17.20;49.80;;;;;;5019401;28;20636;-79
2023/01/11 05:57:10;;;;;;;1.23;0.80;;;17.10;49.50;;;;;;5035334;28;20659;-79
2023/01/11 05:59:39;;;;;;;0.85;0.85;;;17.10;49.50;;;;;;5036575;28;20200;-79
2023/01/11 06:02:06;;;;;;;0.70;0.60;;;17.20;49.50;;;;;;5036000;28;20207;-79
2023/01/11 06:04:33;;;;;;;0.95;0.70;;;17.20;49.40;;;;;;5035887;28;20282;-79
2023/01/11 06:07:00;;;;;;;0.70;0.70;;;17.30;49.50;;;;;;5035677;28;20265;-80
2023/01/11 06:09:27;;;;;;;1.08;0.80;;;17.30;49.50;;;;;;5036904;28;20606;-80
2023/01/11 06:11:54;;;;;;;1.27;0.70;;;17.30;49.00;;;;;;5040002;28;20228;-80
2023/01/11 06:14:21;;;;;;;1.73;0.80;;;17.30;48.90;;;;;;5037299;28;20220;-80
2023/01/11 06:16:50;;;;;;;1.02;0.90;;;17.30;49.00;;;;;;5019081;28;20200;-79
2023/01/11 06:19:17;;;;;;;0.90;0.90;;;17.30;49.10;;;;;;5035019;28;20616;-80
2023/01/11 06:21:44;;;;;;;1.02;0.90;;;17.30;49.30;;;;;;5035302;28;20216;-80
2023/01/11 06:24:12;;;;;;;1.08;1.00;;;17.30;49.40;;;;;;5036389;28;20200;-80
2023/01/11 06:26:39;;;;;;;1.10;1.00;;;17.30;49.50;;;;;;5034713;28;20196;-80
2023/01/11 06:29:06;;;;;;;1.10;1.05;;;17.30;49.40;;;;;;5035095;28;20196;-80
2023/01/11 06:31:33;;;;;;;0.90;0.82;;;17.30;49.50;;;;;;5035003;28;20189;-80
2023/01/11 06:34:01;;;;;;;2.25;0.77;;;17.30;49.40;;;;;;5035345;28;20208;-80
2023/01/11 06:36:30;;;;;;;0.80;0.80;;;17.30;49.40;;;;;;5035648;28;20188;-80
2023/01/11 06:38:57;;;;;;;0.80;0.80;;;17.30;49.30;;;;;;5036868;28;20685;-80
2023/01/11 06:41:24;;;;;;;0.75;0.75;;;17.30;49.50;;;;;;5034779;28;20224;-80
2023/01/11 06:43:51;;;;;;;1.00;0.90;;;17.30;49.40;;;;;;5036774;28;20196;-80
2023/01/11 06:46:19;;;;;;;0.82;0.70;;;17.30;49.50;;;;;;5035780;28;20262;-80
2023/01/11 06:48:46;;;;;;;0.77;0.77;;;17.30;49.50;;;;;;5034724;28;20200;-80
2023/01/11 06:51:15;;;;;;;1.33;0.80;;;17.30;49.50;;;;;;5033799;28;20596;-80
2023/01/11 06:53:42;;;;;;;0.60;0.60;;;17.30;49.50;;;;;;5035440;28;20695;-80
2023/01/11 06:56:12;;;;;;;0.90;0.90;;;17.30;49.50;;;;;;5034326;28;20254;-80
2023/01/11 06:58:39;;;;;;;1.40;0.88;;;17.30;49.60;;;;;;5034615;28;20232;-80
2023/01/11 07:01:06;;;;;;;0.80;0.77;;;17.30;49.50;;;;;;5034436;28;20251;-79
2023/01/11 07:03:33;;;;;;;0.90;0.90;;;17.30;49.70;;;;;;5034209;28;20188;-79
2023/01/11 07:06:00;;;;;;;1.40;0.82;;;17.30;49.70;;;;;;5034197;28;20216;-79
2023/01/11 07:08:29;;;;;;;0.70;0.70;;;17.30;49.70;;;;;;5034347;28;20310;-79
2023/01/11 07:10:56;;;;;;;1.10;0.85;;;17.30;49.60;;;;;;5033917;28;20663;-79
2023/01/11 07:13:23;;;;;;;0.80;0.80;;;17.30;49.30;;;;;;5035290;28;20258;-79
2023/01/11 07:15:52;;;;;;;0.65;0.65;;;17.30;49.30;;;;;;5034568;28;20224;-79
2023/01/11 07:18:20;;;;;;;0.70;0.70;;;17.40;49.30;;;;;;5034560;28;20572;-79
2023/01/11 07:20:47;;;;;;;0.90;0.90;;;17.40;49.10;;;;;;5034703;28;20228;-80
2023/01/11 07:23:14;;;;;;;0.73;0.73;;;17.50;49.10;;;;;;5034370;28;20318;-80
2023/01/11 07:25:42;;;;;;;0.70;0.70;;;17.50;49.10;;;;;;5034297;28;20635;-80
2023/01/11 07:28:09;;;;;;;1.77;0.80;;;17.50;48.80;;;;;;5035081;28;20201;-80
2023/01/11 07:30:37;;;;;;;0.68;0.68;;;17.60;48.60;;;;;;5035264;28;20195;-80
2023/01/11 07:33:05;;;;;;;0.85;0.85;;;17.60;48.60;;;;;;5034267;28;20287;-80
2023/01/11 07:35:32;;;;;;;0.80;0.80;;;17.60;48.40;;;;;;5035338;28;20251;-79
2023/01/11 07:37:59;;;;;;;0.77;0.75;;;17.70;48.40;;;;;;5033799;28;20203;-80
2023/01/11 07:40:26;;;;;;;0.98;0.90;;;17.70;48.40;;;;;;5033404;28;20200;-78
2023/01/11 07:45:40;;;;;;;1.08;0.98;;;17.70;48.40;;;;;;5034010;28;20783;-78
2023/01/11 07:48:09;;;;;;;0.93;0.80;;;17.70;48.40;;;;;;5033141;28;20192;-78
2023/01/11 07:50:38;;;;;;;0.77;0.77;;;17.70;48.40;;;;;;5016945;28;20291;-78
2023/01/11 07:53:05;;;;;;;0.82;0.60;;;17.70;48.40;;;;;;5033168;28;20196;-78
2023/01/11 07:55:32;;;;;;;1.10;1.00;;;17.70;48.40;;;;;;5033802;28;20212;-78
2023/01/11 07:58:01;;;;;;;1.00;1.00;;;17.70;48.40;;;;;;5034225;28;20235;-78
2023/01/11 08:00:28;;;;;;;1.00;0.90;;;17.70;48.60;;;;;;5033137;28;20254;-78
2023/01/11 08:02:55;;;;;;;1.08;1.00;;;17.80;48.80;;;;;;5032198;28;20215;-78
2023/01/11 08:05:24;;;;;;;1.95;0.90;;;17.70;48.60;;;;;;5032857;28;20219;-78
2023/01/11 08:07:51;;;;;;;1.10;1.00;;;17.80;48.80;;;;;;5032852;28;20207;-78
2023/01/11 08:10:18;;;;;;;2.45;1.13;;;17.80;48.80;;;;;;5034300;28;20192;-78
2023/01/11 08:15:32;;;;;;;0.90;0.90;;;17.80;48.70;;;;;;5032764;28;20231;-78
2023/01/11 08:18:00;;;;;;;1.48;1.00;;;17.80;48.50;;;;;;5032762;28;20191;-78
2023/01/11 08:20:27;;;;;;;1.10;0.90;;;17.80;48.70;;;;;;5032844;28;20204;-78
2023/01/11 08:22:55;;;;;;;1.10;0.82;;;17.80;48.80;;;;;;5032463;28;20222;-78
2023/01/11 08:25:22;;;;;;;1.30;1.15;;;17.90;48.70;;;;;;5032543;28;20270;-78
2023/01/11 08:27:49;;;;;;;1.05;0.90;;;17.90;48.90;;;;;;5032657;28;20245;-78
2023/01/11 08:30:16;;;;;;;1.20;1.10;;;17.90;48.90;;;;;;5032603;28;20200;-78
2023/01/11 08:32:45;;;;;;;1.35;1.00;;;17.90;48.80;;;;;;5032853;28;20614;-78
2023/01/11 08:35:12;;;;;;;1.20;1.10;;;17.90;48.70;;;;;;5032270;28;20220;-78
2023/01/11 08:37:39;;;;;;;1.50;1.30;;;17.90;48.80;;;;;;5034120;28;20192;-78
2023/01/11 08:40:08;;;;;;;2.50;1.50;;;17.90;48.80;;;;;;5032265;28;20553;-78
2023/01/11 08:42:35;;;;;;;1.70;1.23;;;17.90;48.70;;;;;;5032432;28;20212;-78
2023/01/11 08:45:02;;;;;;;1.20;1.10;;;17.90;48.60;;;;;;5032530;28;20226;-78
2023/01/11 08:47:30;;;;;;;1.45;1.23;;;17.90;48.70;;;;;;5032521;28;20673;-78
2023/01/11 08:49:58;;;;;;;1.45;1.35;;;18.00;48.70;;;;;;5032692;28;20195;-78
2023/01/11 08:52:25;;;;;;;1.55;1.10;;;18.00;48.60;;;;;;5032189;28;20203;-78
2023/01/11 08:54:53;;;;;;;1.70;1.42;;;18.00;48.80;;;;;;5032044;28;20236;-78
2023/01/11 08:57:20;;;;;;;1.23;1.13;;;18.00;48.60;;;;;;5031981;28;20208;-78
2023/01/11 08:59:47;;;;;;;1.17;0.95;;;18.00;48.60;;;;;;5032169;28;20556;-78
2023/01/11 09:02:14;;;;;;;1.00;0.95;;;18.00;48.60;;;;;;5031878;28;20259;-78
2023/01/11 09:04:42;;;;;;;1.30;1.20;;;18.00;48.60;;;;;;5032129;28;20216;-78
2023/01/11 09:07:10;;;;;;;1.88;1.10;;;18.00;48.80;;;;;;5031931;28;20204;-78
2023/01/11 09:09:38;;;;;;;1.20;1.10;;;18.00;48.80;;;;;;5032209;28;20208;-80
2023/01/11 09:12:05;;;;;;;1.95;1.15;;;18.00;48.80;;;;;;5031954;28;20276;-80
2023/01/11 09:14:33;;;;;;;1.23;1.10;;;18.00;49.00;;;;;;5032952;28;20247;-80
2023/01/11 09:17:00;;;;;;;1.40;1.30;;;17.90;49.10;;;;;;5035615;28;20227;-80
2023/01/11 09:19:27;;;;;;;1.60;1.20;;;18.00;49.10;;;;;;5035920;28;20223;-80
2023/01/11 09:21:56;;;;;;;1.70;1.10;;;18.00;49.20;;;;;;5035809;28;20232;-80
2023/01/11 09:24:25;;;;;;;2.20;1.10;;;17.90;49.20;;;;;;5035712;28;20216;-80
2023/01/11 09:26:51;;;;;;;2.30;1.30;;;17.90;49.10;;;;;;5036168;28;20192;-80
2023/01/11 09:29:19;;;;;;;1.17;1.10;;;17.90;49.10;;;;;;5036112;28;20677;-80
2023/01/11 09:31:46;;;;;;;1.60;1.42;;;18.00;49.00;;;;;;5035699;28;20218;-80
2023/01/11 09:34:14;;;;;;;1.30;1.20;;;18.00;48.90;;;;;;5035739;28;20215;-80
2023/01/11 09:36:41;;;;;;;1.52;1.35;;;18.20;49.00;;;;;;5035867;28;20211;-80
2023/01/11 09:39:11;;;;;;;1.60;1.50;;;18.10;48.80;;;;;;5035929;28;20196;-80
2023/01/11 09:41:59;;;;;;;1.58;1.48;;;18.20;48.80;;;;;;5036080;28;20251;-80
2023/01/11 09:44:28;;;;;;;1.40;1.20;;;18.20;48.80;;;;;;5035615;28;20216;-80
2023/01/11 09:46:58;;;;;;;1.33;1.10;;;18.20;48.80;;;;;;5035477;28;20236;-80
2023/01/11 09:49:27;;;;;;;1.35;1.30;;;18.20;48.80;;;;;;5036228;28;20196;-80
2023/01/11 09:51:56;;;;;;;1.40;1.23;;;18.20;48.80;;;;;;5035771;28;20204;-80
2023/01/11 09:54:26;;;;;;;1.85;1.50;;;18.20;48.80;;;;;;5035065;28;20239;-80
2023/01/11 09:57:00;;;;;;;1.50;1.40;;;18.30;49.50;;;;;;5034920;28;20254;-80
2023/01/11 09:59:32;;;;;;;2.50;2.30;;;18.30;48.90;;;;;;5035917;28;20203;-80
2023/01/11 10:02:04;;;;;;;1.70;1.60;;;18.30;48.80;;;;;;5035401;28;20214;-80
2023/01/11 10:04:47;;;;;;;1.70;1.60;;;18.30;48.90;;;;;;5035411;28;20216;-80
2023/01/11 10:07:44;;;;;;;1.95;1.83;;;18.30;48.90;;;;;;5035017;28;20184;-81
2023/01/11 10:10:20;;;;;;;2.45;2.25;;;18.30;48.80;;;;;;5034984;28;20252;-80
2023/01/11 10:12:55;;;;;;;2.85;2.10;;;18.30;48.90;;;;;;5035026;28;20203;-80
2023/01/11 10:15:27;;;;;;;1.38;1.10;;;18.30;48.90;;;;;;5034824;28;20234;-80
2023/01/11 10:18:21;;;;;;;1.30;1.13;;;18.30;48.80;;;;;;5034857;28;20201;-80
2023/01/11 10:20:50;;;;;;;1.50;1.40;;;18.40;49.00;;;;;;5021979;28;20211;-80
2023/01/11 10:23:23;;;;;;;1.30;1.20;;;18.40;48.90;;;;;;5034631;28;20212;-80
2023/01/11 10:25:53;;;;;;;1.17;1.10;;;18.30;48.80;;;;;;5035161;28;20208;-80
2023/01/11 10:28:27;;;;;;;1.40;1.27;;;18.40;48.90;;;;;;5034857;28;20283;-80
2023/01/11 10:31:06;;;;;;;1.13;1.02;;;18.40;48.90;;;;;;5035204;28;20196;-80
2023/01/11 10:34:04;;;;;;;1.30;1.20;;;18.40;48.90;;;;;;5035857;28;20535;-80
2023/01/11 10:36:50;;;;;;;1.05;0.98;;;18.40;48.90;;;;;;5034822;28;20326;-80
2023/01/11 10:39:38;;;;;;;1.20;1.10;;;18.40;48.90;;;;;;5034624;28;20263;-80
2023/01/11 10:42:10;;;;;;;1.05;0.95;;;18.40;49.00;;;;;;5034243;28;20220;-80
2023/01/11 10:44:41;;;;;;;1.10;1.00;;;18.40;49.00;;;;;;5034412;28;20220;-80
2023/01/11 10:47:12;;;;;;;1.05;1.00;;;18.40;49.00;;;;;;5034461;28;20258;-80
2023/01/11 10:49:43;;;;;;;1.25;1.15;;;18.40;49.00;;;;;;5034341;28;20196;-80
2023/01/11 10:52:20;;;;;;;0.70;0.70;;;18.40;49.00;;;;;;5034011;28;20250;-80
2023/01/11 10:54:53;;;;;;;1.20;1.10;;;18.30;48.90;;;;;;5018400;28;20223;-80
2023/01/11 10:57:23;;;;;;;1.10;1.00;;;18.40;49.00;;;;;;5034393;28;20274;-80
2023/01/11 10:59:59;;;;;;;0.80;0.80;;;18.40;49.10;;;;;;5034118;28;20236;-80
2023/01/11 11:02:41;;;;;;;1.17;1.10;;;18.40;49.10;;;;;;5034598;28;20220;-80
2023/01/11 11:05:18;;;;;;;1.30;1.00;;;18.30;49.00;;;;;;5033899;28;20239;-80
2023/01/11 11:07:49;;;;;;;0.98;0.98;;;18.40;49.00;;;;;;5034326;28;20658;-80
2023/01/11 11:10:20;;;;;;;1.10;1.00;;;18.40;49.20;;;;;;5034937;28;20199;-80
2023/01/11 11:12:51;;;;;;;2.15;1.00;;;18.30;49.20;;;;;;5033773;28;20227;-80
2023/01/11 11:15:22;;;;;;;1.30;1.20;;;18.30;49.30;;;;;;5034214;28;20220;-80
2023/01/11 11:17:52;;;;;;;1.10;1.10;;;18.30;49.20;;;;;;5033527;28;20292;-80
2023/01/11 11:20:19;;;;;;;0.82;0.82;;;18.40;49.30;;;;;;5033315;28;20227;-80
2023/01/11 11:22:49;;;;;;;0.98;0.98;;;18.40;49.00;;;;;;5033430;28;20731;-80
2023/01/11 11:25:17;;;;;;;0.90;0.90;;;18.50;49.00;;;;;;5017293;28;20757;-80
2023/01/11 11:27:46;;;;;;;1.02;1.02;;;18.50;49.60;;;;;;5033412;28;20200;-80
2023/01/11 11:30:14;;;;;;;1.10;1.10;;;18.50;49.00;;;;;;5033452;28;20196;-80
2023/01/11 11:32:46;;;;;;;0.90;0.90;;;18.60;49.10;;;;;;5033245;28;20196;-80
2023/01/11 11:35:29;;;;;;;0.88;0.88;;;18.50;49.00;;;;;;5033501;28;20212;-80
2023/01/11 11:37:57;;;;;;;0.90;0.90;;;18.50;49.00;;;;;;5034137;28;20207;-80
2023/01/11 11:40:28;;;;;;;1.00;1.00;;;18.50;49.10;;;;;;5033671;28;20199;-80
2023/01/11 11:43:09;;;;;;;0.88;0.88;;;18.50;49.10;;;;;;5033586;28;20243;-79
2023/01/11 11:45:36;;;;;;;0.90;0.90;;;18.50;49.00;;;;;;5017349;28;20306;-80
2023/01/11 11:48:05;;;;;;;1.05;1.02;;;18.50;49.20;;;;;;5033065;28;20200;-80
2023/01/11 11:50:33;;;;;;;1.00;0.90;;;18.50;49.20;;;;;;5034790;28;20188;-80
2023/01/11 11:53:02;;;;;;;0.70;0.70;;;18.60;49.20;;;;;;5035895;28;20540;-80
2023/01/11 11:55:30;;;;;;;0.70;0.70;;;18.50;49.20;;;;;;5034935;28;20592;-80
2023/01/11 11:57:58;;;;;;;0.88;0.88;;;18.60;49.30;;;;;;5037986;28;20227;-78
2023/01/11 12:00:27;;;;;;;0.80;0.80;;;18.60;49.30;;;;;;5040135;28;20207;-81
2023/01/11 12:02:55;;;;;;;0.90;0.90;;;18.60;49.10;;;;;;5040296;28;20215;-79
2023/01/11 12:05:24;;;;;;;0.80;0.80;;;18.60;49.10;;;;;;5041941;28;20283;-79
2023/01/11 12:07:52;;;;;;;1.05;0.95;;;18.60;49.20;;;;;;5046009;28;20203;-79
2023/01/11 12:10:21;;;;;;;0.93;0.90;;;18.60;49.20;;;;;;5042907;28;20667;-79
2023/01/11 12:12:49;;;;;;;0.90;0.80;;;18.60;49.10;;;;;;5047068;28;20200;-79
2023/01/11 12:15:23;;;;;;;0.93;0.93;;;18.60;49.20;;;;;;5050552;28;20244;-79
2023/01/11 12:17:50;;;;;;;1.58;1.00;;;18.60;49.20;;;;;;5050560;28;20299;-79
2023/01/11 12:20:33;;;;;;;1.00;1.00;;;18.60;49.20;;;;;;5046312;28;20204;-79
2023/01/11 12:23:13;;;;;;;1.08;1.02;;;18.60;49.20;;;;;;5042654;28;20208;-79
2023/01/11 12:25:45;;;;;;;1.00;0.98;;;18.60;49.10;;;;;;5042380;28;20219;-79
2023/01/11 12:28:15;;;;;;;0.90;0.90;;;18.70;49.20;;;;;;5041524;28;20210;-79
2023/01/11 12:30:44;;;;;;;0.70;0.70;;;18.70;49.20;;;;;;5040901;28;20643;-79
2023/01/11 12:33:30;;;;;;;0.60;0.60;;;18.70;49.20;;;;;;5039122;28;20238;-79
2023/01/11 12:36:02;;;;;;;0.80;0.80;;;18.70;49.20;;;;;;5035763;28;20234;-79
2023/01/11 12:38:39;;;;;;;0.75;0.75;;;18.70;49.20;;;;;;5034791;28;20200;-79
2023/01/11 12:41:18;;;;;;;2.17;1.35;;;18.70;49.20;;;;;;5034395;28;20200;-79
2023/01/11 12:43:56;;;;;;;1.00;1.00;;;18.70;49.20;;;;;;5034735;28;20294;-79
2023/01/11 12:46:27;;;;;;;0.95;0.95;;;18.70;49.30;;;;;;5033902;28;20615;-79
2023/01/11 12:49:09;;;;;;;0.80;0.80;;;18.70;49.40;;;;;;5034364;28;20196;-79
2023/01/11 12:51:52;;;;;;;0.90;0.90;;;18.70;49.40;;;;;;5037984;28;20210;-79
2023/01/11 12:54:33;;;;;;;1.10;1.00;;;18.70;49.20;;;;;;5037974;28;20279;-79
2023/01/11 12:57:06;;;;;;;1.00;1.00;;;18.70;49.30;;;;;;5037440;28;20210;-79
2023/01/11 12:59:51;;;;;;;0.88;0.88;;;18.70;49.20;;;;;;5037315;28;20199;-79
2023/01/11 13:02:28;;;;;;;0.75;0.75;;;18.70;49.20;;;;;;5036544;28;20263;-79
2023/01/11 13:05:01;;;;;;;0.90;0.90;;;18.70;49.40;;;;;;5038294;28;20196;-79
2023/01/11 13:07:40;;;;;;;1.00;0.93;;;18.70;49.40;;;;;;5036610;28;20196;-79
2023/01/11 13:10:20;;;;;;;0.77;0.77;;;18.70;49.50;;;;;;5017379;28;20242;-78
2023/01/11 13:12:49;;;;;;;0.85;0.85;;;18.70;49.50;;;;;;5021604;28;20200;-78
2023/01/11 13:15:25;;;;;;;0.90;0.90;;;18.80;49.60;;;;;;5035383;28;20228;-78
2023/01/11 13:17:54;;;;;;;1.17;0.95;;;18.80;49.70;;;;;;5032883;28;20192;-79
2023/01/11 13:20:33;;;;;;;1.45;1.10;;;18.80;49.60;;;;;;5037969;28;20214;-79